createdAt,value
2022-09-14T00:02:55.899Z,1.73
2022-09-14T00:08:01.674Z,1.73
2022-09-14T00:13:09.957Z,1.52
2022-09-14T00:18:15.834Z,1.83
2022-09-14T00:23:21.700Z,1.95
2022-09-14T00:28:29.153Z,1.92
2022-09-14T00:33:35.341Z,1.70
2022-09-14T00:38:42.126Z,2.10
2022-09-14T00:43:58.874Z,2.38
2022-09-14T00:49:09.136Z,2.40
2022-09-14T00:54:15.034Z,2.28
2022-09-14T00:59:28.379Z,2.70
2022-09-14T01:04:34.390Z,3.25
2022-09-14T01:09:52.387Z,2.03
2022-09-14T01:15:11.261Z,2.60
2022-09-14T01:20:27.273Z,1.83
2022-09-14T01:26:16.970Z,2.50
2022-09-14T01:31:32.480Z,3.35
2022-09-14T01:36:43.361Z,3.17
2022-09-14T01:41:51.589Z,3.38
2022-09-14T01:47:06.563Z,2.63
2022-09-14T01:52:20.422Z,2.97
2022-09-14T01:57:32.187Z,2.58
2022-09-14T02:02:44.111Z,3.53
2022-09-14T02:07:50.275Z,3.40
2022-09-14T02:12:57.309Z,3.80
2022-09-14T02:18:05.849Z,3.80
2022-09-14T02:23:11.969Z,4.80
2022-09-14T02:28:17.974Z,4.90
2022-09-14T02:33:32.778Z,5.13
2022-09-14T02:38:47.936Z,4.40
2022-09-14T02:44:09.189Z,5.85
2022-09-14T02:49:25.725Z,4.68
2022-09-14T02:54:38.168Z,4.85
2022-09-14T02:59:44.237Z,5.13
2022-09-14T03:04:51.919Z,6.28
2022-09-14T03:09:58.098Z,6.10
2022-09-14T03:15:03.984Z,5.63
2022-09-14T03:20:11.977Z,6.50
2022-09-14T03:25:19.326Z,6.25
2022-09-14T03:30:25.410Z,7.13
2022-09-14T03:35:33.777Z,7.50
2022-09-14T03:40:41.318Z,6.50
2022-09-14T03:45:47.238Z,6.65
2022-09-14T03:50:54.719Z,6.80
2022-09-14T03:56:00.591Z,7.32
2022-09-14T04:01:07.879Z,7.20
2022-09-14T04:06:16.320Z,7.05
2022-09-14T04:11:24.690Z,6.47
2022-09-14T04:16:31.167Z,5.73
2022-09-14T04:21:38.411Z,5.20
2022-09-14T04:26:45.086Z,6.45
2022-09-14T04:31:50.948Z,4.30
2022-09-14T04:36:58.152Z,5.22
2022-09-14T04:42:04.222Z,6.80
2022-09-14T04:47:10.353Z,6.22
2022-09-14T04:52:17.823Z,6.80
2022-09-14T04:57:23.611Z,6.70
2022-09-14T05:02:31.333Z,6.38
2022-09-14T05:07:38.718Z,6.95
2022-09-14T05:12:44.941Z,5.97
2022-09-14T05:17:50.969Z,6.38
2022-09-14T05:22:58.303Z,6.80
2022-09-14T05:28:05.233Z,8.18
2022-09-14T05:33:11.225Z,8.32
2022-09-14T05:38:19.068Z,8.27
2022-09-14T05:43:25.084Z,9.23
2022-09-14T05:48:33.938Z,10.13
2022-09-14T05:58:47.859Z,9.60
2022-09-14T06:03:56.609Z,10.55
2022-09-14T06:09:05.150Z,10.10
2022-09-14T06:14:11.062Z,9.52
2022-09-14T06:19:18.047Z,11.30
2022-09-14T06:24:25.518Z,9.75
2022-09-14T06:29:31.745Z,9.45
2022-09-14T06:34:37.757Z,10.23
2022-09-14T06:39:45.277Z,8.93
2022-09-14T06:44:51.024Z,10.60
2022-09-14T06:49:57.041Z,9.68
2022-09-14T06:55:04.902Z,8.73
2022-09-14T07:00:12.729Z,9.38
2022-09-14T07:05:21.376Z,7.70
2022-09-14T07:10:29.180Z,7.57
2022-09-14T07:15:35.087Z,7.90
2022-09-14T07:20:41.122Z,7.85
2022-09-14T07:25:48.633Z,7.15
2022-09-14T07:30:58.868Z,7.40
2022-09-14T07:36:08.936Z,7.30
2022-09-14T07:41:16.192Z,6.20
2022-09-14T07:46:23.236Z,6.30
2022-09-14T07:51:30.952Z,6.10
2022-09-14T07:56:38.271Z,5.70
2022-09-14T08:01:45.312Z,4.65
2022-09-14T08:06:51.234Z,4.95
2022-09-14T08:11:58.961Z,5.05
2022-09-14T08:17:05.424Z,4.95
2022-09-14T08:22:11.232Z,5.10
2022-09-14T08:27:18.488Z,3.72
2022-09-14T08:32:24.988Z,4.78
2022-09-14T08:37:30.954Z,5.50
2022-09-14T08:42:41.342Z,3.72
2022-09-14T08:47:47.393Z,3.55
2022-09-14T08:52:55.146Z,2.70
2022-09-14T08:58:09.655Z,2.70
2022-09-14T09:04:02.858Z,2.42
2022-09-14T09:09:17.542Z,2.45
2022-09-14T09:14:32.951Z,1.92
2022-09-14T09:19:46.409Z,1.80
2022-09-14T09:24:56.844Z,2.33
2022-09-14T09:30:04.446Z,2.25
2022-09-14T09:35:15.668Z,2.63
2022-09-14T09:40:36.932Z,2.10
2022-09-14T09:45:59.588Z,2.08
2022-09-14T09:51:12.622Z,2.10
2022-09-14T09:56:24.202Z,2.00
2022-09-14T10:01:33.972Z,2.00
2022-09-14T10:06:45.218Z,1.88
2022-09-14T10:12:00.328Z,1.70
2022-09-14T10:17:20.721Z,1.90
2022-09-14T10:22:31.312Z,1.88
2022-09-14T10:27:42.214Z,1.85
2022-09-14T10:33:02.477Z,1.40
2022-09-14T10:38:32.614Z,1.20
2022-09-14T10:44:04.399Z,1.02
2022-09-14T10:49:41.230Z,0.90
2022-09-14T10:55:24.566Z,1.17
2022-09-14T11:00:37.706Z,1.40
2022-09-14T11:05:56.761Z,1.35
2022-09-14T11:16:52.461Z,1.00
2022-09-14T11:22:09.602Z,0.75
2022-09-14T11:27:25.498Z,1.15
2022-09-14T11:32:36.508Z,0.80
2022-09-14T11:37:48.741Z,1.00
2022-09-14T11:43:02.624Z,1.10
2022-09-14T11:53:46.664Z,0.93
2022-09-14T11:58:54.681Z,1.02
2022-09-14T12:04:13.761Z,1.03
2022-09-14T12:10:19.122Z,1.33
2022-09-14T12:15:35.982Z,0.80
2022-09-14T12:20:45.191Z,0.70
2022-09-14T12:26:15.162Z,0.95
2022-09-14T12:32:03.577Z,1.38
2022-09-14T12:37:32.977Z,1.20
2022-09-14T12:42:40.572Z,1.77
2022-09-14T12:47:55.495Z,1.05
2022-09-14T12:53:29.324Z,0.95
2022-09-14T12:59:00.885Z,1.00
2022-09-14T13:04:14.591Z,1.13
2022-09-14T13:09:24.395Z,0.90
2022-09-14T13:14:35.442Z,0.98
2022-09-14T13:19:41.488Z,1.25
2022-09-14T13:24:49.887Z,1.38
2022-09-14T13:30:08.757Z,1.17
2022-09-14T13:35:21.966Z,1.05
2022-09-14T13:40:31.533Z,0.80
2022-09-14T13:45:39.907Z,0.80
2022-09-14T13:55:54.578Z,1.90
2022-09-14T14:01:05.155Z,0.82
2022-09-14T14:06:27.362Z,1.08
2022-09-14T14:11:37.222Z,0.88
2022-09-14T14:16:59.917Z,1.02
2022-09-14T14:22:21.786Z,1.00
2022-09-14T14:27:34.786Z,0.80
2022-09-14T14:32:42.172Z,0.90
2022-09-14T14:37:49.010Z,0.70
2022-09-14T14:42:56.044Z,1.25
2022-09-14T14:48:05.273Z,0.63
2022-09-14T14:53:13.501Z,0.80
2022-09-14T14:58:23.124Z,0.98
2022-09-14T15:03:31.808Z,0.70
2022-09-14T15:08:37.851Z,0.73
2022-09-14T15:13:43.526Z,0.88
2022-09-14T15:18:50.816Z,1.00
2022-09-14T15:23:56.734Z,0.85
2022-09-14T15:29:04.866Z,0.70
2022-09-14T15:34:12.235Z,1.00
2022-09-14T15:39:19.339Z,0.95
2022-09-14T15:44:27.047Z,1.00
2022-09-14T15:49:34.768Z,0.88
2022-09-14T15:54:41.231Z,0.70
2022-09-14T15:59:47.308Z,0.85
2022-09-14T16:04:54.635Z,0.90
2022-09-14T16:10:00.660Z,0.90
2022-09-14T16:15:08.137Z,0.85
2022-09-14T16:20:15.900Z,0.88
2022-09-14T16:25:21.913Z,1.08
2022-09-14T16:30:28.045Z,0.65
2022-09-14T16:35:35.391Z,1.00
2022-09-14T16:40:43.388Z,0.77
2022-09-14T16:45:49.280Z,0.83
2022-09-14T16:50:57.461Z,0.95
2022-09-14T16:56:05.906Z,3.10
2022-09-14T17:01:15.951Z,3.38
2022-09-14T17:06:26.044Z,2.67
2022-09-14T17:11:35.481Z,3.55
2022-09-14T17:16:41.717Z,3.17
2022-09-14T17:21:50.521Z,3.00
2022-09-14T17:32:02.341Z,3.28
2022-09-14T17:37:09.862Z,3.33
2022-09-14T17:42:15.851Z,3.75
2022-09-14T17:47:21.758Z,2.10
2022-09-14T17:52:29.504Z,2.63
2022-09-14T17:57:36.697Z,2.78
2022-09-14T18:02:43.207Z,4.68
2022-09-14T18:07:51.939Z,3.95
2022-09-14T18:18:04.239Z,5.60
2022-09-14T18:23:11.981Z,5.95
2022-09-14T18:28:18.886Z,5.43
2022-09-14T18:33:25.151Z,8.85
2022-09-14T18:38:33.343Z,5.95
2022-09-14T18:43:40.037Z,5.93
2022-09-14T18:48:46.565Z,5.43
2022-09-14T18:54:00.670Z,7.55
2022-09-14T18:59:16.801Z,7.57
2022-09-14T19:04:23.189Z,6.90
2022-09-14T19:09:32.469Z,7.35
2022-09-14T19:14:41.711Z,8.15
2022-09-14T19:19:48.122Z,7.93
2022-09-14T19:24:55.603Z,8.38
2022-09-14T19:30:02.598Z,7.78
2022-09-14T19:35:12.487Z,8.63
2022-09-14T19:40:20.134Z,8.82
2022-09-14T19:45:26.492Z,6.72
2022-09-14T19:50:33.037Z,7.63
2022-09-14T19:55:41.134Z,6.00
2022-09-14T20:00:47.842Z,5.80
2022-09-14T20:06:02.580Z,5.40
2022-09-14T20:11:16.623Z,7.45
2022-09-14T20:16:29.980Z,5.28
2022-09-14T20:21:38.158Z,6.13
2022-09-14T20:26:45.916Z,6.50
2022-09-14T20:31:52.838Z,5.93
2022-09-14T20:37:00.444Z,6.18
2022-09-14T20:42:08.524Z,5.85
2022-09-14T20:47:14.523Z,5.55
2022-09-14T20:52:20.901Z,7.15
2022-09-14T20:57:28.431Z,8.13
2022-09-14T21:02:34.353Z,7.35
2022-09-14T21:07:40.421Z,7.47
2022-09-14T21:12:48.035Z,7.38
2022-09-14T21:17:57.205Z,6.55
2022-09-14T21:23:03.337Z,6.78
2022-09-14T21:28:10.841Z,7.18
2022-09-14T21:33:17.099Z,6.20
2022-09-14T21:38:22.874Z,5.97
2022-09-14T21:43:30.839Z,6.10
2022-09-14T21:48:37.986Z,5.70
2022-09-14T21:53:47.579Z,5.43
2022-09-14T21:58:57.276Z,7.32
2022-09-14T22:04:03.815Z,7.30
2022-09-14T22:09:10.236Z,8.55
2022-09-14T22:14:19.662Z,7.90
2022-09-14T22:19:28.972Z,8.05
2022-09-14T22:24:38.937Z,8.18
2022-09-14T22:29:46.734Z,8.65
2022-09-14T22:34:52.744Z,9.95
2022-09-14T22:39:58.614Z,7.85
2022-09-14T22:45:07.148Z,8.40
2022-09-14T22:50:13.551Z,10.05
2022-09-14T22:55:19.515Z,8.73
2022-09-14T23:00:27.218Z,9.48
2022-09-14T23:05:33.105Z,8.80
2022-09-14T23:10:39.439Z,8.80
2022-09-14T23:15:47.684Z,7.15
2022-09-14T23:20:53.492Z,6.50
2022-09-14T23:26:05.824Z,7.22
2022-09-14T23:31:13.205Z,6.80
2022-09-14T23:36:19.667Z,6.70
2022-09-14T23:41:28.459Z,6.40
2022-09-14T23:46:36.861Z,6.85
2022-09-14T23:51:43.566Z,6.15
2022-09-14T23:56:49.766Z,6.03
